Terminal Aerodrome Forecast
Issued by NWS Hastings, NE

Home | Current Version | Previous Version | Text Only | Print | Product List | Glossary On
Versions: 1 2 3 4 5 6 7 8 9 10 11 12 13 14 15 16 17 18 19 20 21
000
FTUS45 KGID 291225 AAA
TAFEAR
TAF AMD
KEAR 291225Z 2912/3012 34005KT P6SM SCT005
      TEMPO 2913/2914 3SM BR SCT005
     FM291400 36006KT P6SM SKC
     FM292100 09006KT P6SM SKC
     FM300100 16006KT P6SM SKC
      AMD LTD TO CLD VIS AND WIND=

USA.gov is the U.S. government's official web portal to all federal, state and local government web resources and services.